Terminal Aerodrome Forecast
Issued by NWS Flagstaff, AZ

Home | Current Version | Previous Version | Text Only | Print | Product List | Glossary On
Versions: 1 2 3 4 5 6 7 8 9 10 11 12 13 14 15 16 17
000
FTUS45 KFGZ 301740
TAFFLG
TAF
KFLG 301740Z 3018/3118 22017G27KT P6SM SCT250
     FM302000 22030G40KT P6SM SCT100
     FM310230 22020G30KT P6SM VCSH BKN035 OVC070
      TEMPO 3103/3105 VRB30G45KT TSRASN OVC035CB
     FM310500 24015G25KT 5SM -SHSN OVC025=

USA.gov is the U.S. government's official web portal to all federal, state and local government web resources and services.